Aviation Digital Data Service (ADDS)

Output produced by METARs form (1204 UTC 22 March 2019)
found at http://www.aviationweather.gov/metar/data/
 
METAR text: OIBP 221200Z 12010KT 9999 FEW035CB SCT040 BKN090 25/17 Q1011 A2988
Conditions at: OIBP (PERSIAN GULF APT, IR) observed 1200 UTC 22 March 2019
Temperature: 25.0°C (77°F)
Dewpoint: 17.0°C (63°F) [RH = 61%]
Pressure (altimeter): 29.85 inches Hg (1011.0 mb)
Winds: from the ESE (120 degrees) at 12 MPH (10 knots; 5.1 m/s)
Visibility: 6 or more miles (10+ km)
Ceiling: 9000 feet AGL
Clouds: few clouds at 3500 feet AGL
scattered clouds at 4000 feet AGL
broken clouds at 9000 feet AGL
Weather: no significant weather observed at this time

METAR text: OIBP 221130Z 01006KT 9999 FEW030CB SCT035 BKN090 26/13 Q1011 A2988
Conditions at: OIBP (PERSIAN GULF APT, IR) observed 1130 UTC 22 March 2019
Temperature: 26.0°C (79°F)
Dewpoint: 13.0°C (55°F) [RH = 45%]
Pressure (altimeter): 29.85 inches Hg (1011.0 mb)
Winds: from the N (10 degrees) at 7 MPH (6 knots; 3.1 m/s)
Visibility: 6 or more miles (10+ km)
Ceiling: 9000 feet AGL
Clouds: few clouds at 3000 feet AGL
scattered clouds at 3500 feet AGL
broken clouds at 9000 feet AGL
Weather: no significant weather observed at this time

METAR text: OIBP 221100Z 02012KT 9999 FEW030CB SCT035 BKN090 25/14 Q1012 A2989
Conditions at: OIBP (PERSIAN GULF APT, IR) observed 1100 UTC 22 March 2019
Temperature: 25.0°C (77°F)
Dewpoint: 14.0°C (57°F) [RH = 50%]
Pressure (altimeter): 29.88 inches Hg (1012.0 mb)
Winds: from the NNE (20 degrees) at 14 MPH (12 knots; 6.2 m/s)
Visibility: 6 or more miles (10+ km)
Ceiling: 9000 feet AGL
Clouds: few clouds at 3000 feet AGL
scattered clouds at 3500 feet AGL
broken clouds at 9000 feet AGL
Weather: no significant weather observed at this time

METAR text: OIBP 221030Z 35006KT 9999 FEW030CB SCT035 BKN090 25/13 Q1012 A2989
Conditions at: OIBP (PERSIAN GULF APT, IR) observed 1030 UTC 22 March 2019
Temperature: 25.0°C (77°F)
Dewpoint: 13.0°C (55°F) [RH = 47%]
Pressure (altimeter): 29.88 inches Hg (1012.0 mb)
Winds: from the N (350 degrees) at 7 MPH (6 knots; 3.1 m/s)
Visibility: 6 or more miles (10+ km)
Ceiling: 9000 feet AGL
Clouds: few clouds at 3000 feet AGL
scattered clouds at 3500 feet AGL
broken clouds at 9000 feet AGL
Weather: no significant weather observed at this time

METAR text: OIBP 221000Z 02012KT 9999 FEW035CB SCT040 BKN090 25/14 Q1012 A2990
Conditions at: OIBP (PERSIAN GULF APT, IR) observed 1000 UTC 22 March 2019
Temperature: 25.0°C (77°F)
Dewpoint: 14.0°C (57°F) [RH = 50%]
Pressure (altimeter): 29.88 inches Hg (1012.0 mb)
Winds: from the NNE (20 degrees) at 14 MPH (12 knots; 6.2 m/s)
Visibility: 6 or more miles (10+ km)
Ceiling: 9000 feet AGL
Clouds: few clouds at 3500 feet AGL
scattered clouds at 4000 feet AGL
broken clouds at 9000 feet AGL
Weather: no significant weather observed at this time

METAR text: OIBP 220930Z 02010KT 9999 FEW035CB SCT040 BKN090 24/14 Q1013 A2993
Conditions at: OIBP (PERSIAN GULF APT, IR) observed 0930 UTC 22 March 2019
Temperature: 24.0°C (75°F)
Dewpoint: 14.0°C (57°F) [RH = 54%]
Pressure (altimeter): 29.91 inches Hg (1013.0 mb)
Winds: from the NNE (20 degrees) at 12 MPH (10 knots; 5.1 m/s)
Visibility: 6 or more miles (10+ km)
Ceiling: 9000 feet AGL
Clouds: few clouds at 3500 feet AGL
scattered clouds at 4000 feet AGL
broken clouds at 9000 feet AGL
Weather: no significant weather observed at this time

METAR text: OIBP 220900Z 10010KT 7000 FEW030CB SCT035 BKN090 23/16 Q1014 A2997
Conditions at: OIBP (PERSIAN GULF APT, IR) observed 0900 UTC 22 March 2019
Temperature: 23.0°C (73°F)
Dewpoint: 16.0°C (61°F) [RH = 65%]
Pressure (altimeter): 29.94 inches Hg (1014.0 mb)
Winds: from the E (100 degrees) at 12 MPH (10 knots; 5.1 m/s)
Visibility: 4 miles ( 7 km)
Ceiling: 9000 feet AGL
Clouds: few clouds at 3000 feet AGL
scattered clouds at 3500 feet AGL
broken clouds at 9000 feet AGL
Weather: no significant weather observed at this time

METAR text: OIBP 220830Z 11006KT 7000 FEW030CB BKN035 BKN090 21/17 Q1015 A3000 RERA
Conditions at: OIBP (PERSIAN GULF APT, IR) observed 0830 UTC 22 March 2019
Temperature: 21.0°C (70°F)
Dewpoint: 17.0°C (63°F) [RH = 78%]
Pressure (altimeter): 29.97 inches Hg (1015.0 mb)
Winds: from the ESE (110 degrees) at 7 MPH (6 knots; 3.1 m/s)
Visibility: 4 miles ( 7 km)
Ceiling: 3500 feet AGL
Clouds: few clouds at 3000 feet AGL
broken clouds at 3500 feet AGL
broken clouds at 9000 feet AGL
Weather: no significant weather observed at this time

METAR text: OIBP 220800Z 04004KT 7000 -RA FEW030CB BKN035 BKN090 20/16 Q1016 A3002
Conditions at: OIBP (PERSIAN GULF APT, IR) observed 0800 UTC 22 March 2019
Temperature: 20.0°C (68°F)
Dewpoint: 16.0°C (61°F) [RH = 78%]
Pressure (altimeter): 30.00 inches Hg (1016.0 mb)
Winds: from the NE (40 degrees) at 5 MPH (4 knots; 2.1 m/s)
Visibility: 4 miles ( 7 km)
Ceiling: 3500 feet AGL
Clouds: few clouds at 3000 feet AGL
broken clouds at 3500 feet AGL
broken clouds at 9000 feet AGL
Weather: -RA  (light rain)

METAR text: OIBP 220730Z 00000KT 4000 -RA FEW030CB BKN035 BKN080 21/18 Q1017 A3003
Conditions at: OIBP (PERSIAN GULF APT, IR) observed 0730 UTC 22 March 2019
Temperature: 21.0°C (70°F)
Dewpoint: 18.0°C (64°F) [RH = 83%]
Pressure (altimeter): 30.03 inches Hg (1017.0 mb)
Winds: calm
Visibility: 2.49 miles (4.01 km)
Ceiling: 3500 feet AGL
Clouds: few clouds at 3000 feet AGL
broken clouds at 3500 feet AGL
broken clouds at 8000 feet AGL
Weather: -RA  (light rain)

METAR text: OIBP 220700Z 00000KT 4000 -RA FEW030CB BKN035 BKN080 22/18 Q1016 A3002
Conditions at: OIBP (PERSIAN GULF APT, IR) observed 0700 UTC 22 March 2019
Temperature: 22.0°C (72°F)
Dewpoint: 18.0°C (64°F) [RH = 78%]
Pressure (altimeter): 30.00 inches Hg (1016.0 mb)
Winds: calm
Visibility: 2.49 miles (4.01 km)
Ceiling: 3500 feet AGL
Clouds: few clouds at 3000 feet AGL
broken clouds at 3500 feet AGL
broken clouds at 8000 feet AGL
Weather: -RA  (light rain)

METAR text: OIBP 220600Z 33004KT 4000 BR FEW025CB SCT030 BKN080 21/18 Q1017 A3006
Conditions at: OIBP (PERSIAN GULF APT, IR) observed 0600 UTC 22 March 2019
Temperature: 21.0°C (70°F)
Dewpoint: 18.0°C (64°F) [RH = 83%]
Pressure (altimeter): 30.03 inches Hg (1017.0 mb)
Winds: from the NNW (330 degrees) at 5 MPH (4 knots; 2.1 m/s)
Visibility: 2.49 miles (4.01 km)
Ceiling: 8000 feet AGL
Clouds: few clouds at 2500 feet AGL
scattered clouds at 3000 feet AGL
broken clouds at 8000 feet AGL
Weather: BR  (mist)

METAR text: OIBP 220530Z 12004KT 5000 BR FEW030CB SCT035 BKN090 19/18 Q1014 A2996
Conditions at: OIBP (PERSIAN GULF APT, IR) observed 0530 UTC 22 March 2019
Temperature: 19.0°C (66°F)
Dewpoint: 18.0°C (64°F) [RH = 94%]
Pressure (altimeter): 29.94 inches Hg (1014.0 mb)
Winds: from the ESE (120 degrees) at 5 MPH (4 knots; 2.1 m/s)
Visibility: 3 miles ( 5 km)
Ceiling: 9000 feet AGL
Clouds: few clouds at 3000 feet AGL
scattered clouds at 3500 feet AGL
broken clouds at 9000 feet AGL
Weather: BR  (mist)

METAR text: OIBP 220500Z 36006KT 5000 BR FEW030CB SCT035 BKN090 20/18 Q1016 A3002
Conditions at: OIBP (PERSIAN GULF APT, IR) observed 0500 UTC 22 March 2019
Temperature: 20.0°C (68°F)
Dewpoint: 18.0°C (64°F) [RH = 88%]
Pressure (altimeter): 30.00 inches Hg (1016.0 mb)
Winds: from the N (360 degrees) at 7 MPH (6 knots; 3.1 m/s)
Visibility: 3 miles ( 5 km)
Ceiling: 9000 feet AGL
Clouds: few clouds at 3000 feet AGL
scattered clouds at 3500 feet AGL
broken clouds at 9000 feet AGL
Weather: BR  (mist)

METAR text: OIBP 220430Z 15004KT 5000 BR FEW030CB SCT035 BKN090 20/17 Q1015 A2999
Conditions at: OIBP (PERSIAN GULF APT, IR) observed 0430 UTC 22 March 2019
Temperature: 20.0°C (68°F)
Dewpoint: 17.0°C (63°F) [RH = 83%]
Pressure (altimeter): 29.97 inches Hg (1015.0 mb)
Winds: from the SSE (150 degrees) at 5 MPH (4 knots; 2.1 m/s)
Visibility: 3 miles ( 5 km)
Ceiling: 9000 feet AGL
Clouds: few clouds at 3000 feet AGL
scattered clouds at 3500 feet AGL
broken clouds at 9000 feet AGL
Weather: BR  (mist)

METAR text: OIBP 220400Z 12004KT 5000 BR FEW030CB SCT035 BKN090 19/18 Q1014 A2996
Conditions at: OIBP (PERSIAN GULF APT, IR) observed 0400 UTC 22 March 2019
Temperature: 19.0°C (66°F)
Dewpoint: 18.0°C (64°F) [RH = 94%]
Pressure (altimeter): 29.94 inches Hg (1014.0 mb)
Winds: from the ESE (120 degrees) at 5 MPH (4 knots; 2.1 m/s)
Visibility: 3 miles ( 5 km)
Ceiling: 9000 feet AGL
Clouds: few clouds at 3000 feet AGL
scattered clouds at 3500 feet AGL
broken clouds at 9000 feet AGL
Weather: BR  (mist)

METAR text: OIBP 220330Z 19004KT 7000 FEW030CB SCT035 BKN090 19/17 Q1014 A2995
Conditions at: OIBP (PERSIAN GULF APT, IR) observed 0330 UTC 22 March 2019
Temperature: 19.0°C (66°F)
Dewpoint: 17.0°C (63°F) [RH = 88%]
Pressure (altimeter): 29.94 inches Hg (1014.0 mb)
Winds: from the S (190 degrees) at 5 MPH (4 knots; 2.1 m/s)
Visibility: 4 miles ( 7 km)
Ceiling: 9000 feet AGL
Clouds: few clouds at 3000 feet AGL
scattered clouds at 3500 feet AGL
broken clouds at 9000 feet AGL
Weather: no significant weather observed at this time

METAR text: OIBP 220300Z 29006KT 7000 FEW030CB SCT035 BKN090 19/18 Q1013 A2993
Conditions at: OIBP (PERSIAN GULF APT, IR) observed 0300 UTC 22 March 2019
Temperature: 19.0°C (66°F)
Dewpoint: 18.0°C (64°F) [RH = 94%]
Pressure (altimeter): 29.91 inches Hg (1013.0 mb)
Winds: from the WNW (290 degrees) at 7 MPH (6 knots; 3.1 m/s)
Visibility: 4 miles ( 7 km)
Ceiling: 9000 feet AGL
Clouds: few clouds at 3000 feet AGL
scattered clouds at 3500 feet AGL
broken clouds at 9000 feet AGL
Weather: no significant weather observed at this time

METAR text: OIBP 220200Z 04006KT 9999 SCT040 BKN090 19/18 Q1011 A2988
Conditions at: OIBP (PERSIAN GULF APT, IR) observed 0200 UTC 22 March 2019
Temperature: 19.0°C (66°F)
Dewpoint: 18.0°C (64°F) [RH = 94%]
Pressure (altimeter): 29.85 inches Hg (1011.0 mb)
Winds: from the NE (40 degrees) at 7 MPH (6 knots; 3.1 m/s)
Visibility: 6 or more miles (10+ km)
Ceiling: 9000 feet AGL
Clouds: scattered clouds at 4000 feet AGL
broken clouds at 9000 feet AGL
Weather: no significant weather observed at this time

METAR text: OIBP 220100Z 04004KT 9999 SCT040 OVC090 19/18 Q1013 A2991
Conditions at: OIBP (PERSIAN GULF APT, IR) observed 0100 UTC 22 March 2019
Temperature: 19.0°C (66°F)
Dewpoint: 18.0°C (64°F) [RH = 94%]
Pressure (altimeter): 29.91 inches Hg (1013.0 mb)
Winds: from the NE (40 degrees) at 5 MPH (4 knots; 2.1 m/s)
Visibility: 6 or more miles (10+ km)
Ceiling: 9000 feet AGL
Clouds: scattered clouds at 4000 feet AGL
overcast cloud deck at 9000 feet AGL
Weather: no significant weather observed at this time

METAR text: OIBP 211700Z 32004KT 9999 SCT040 BKN090 23/16 Q1012 A2989 RERA
Conditions at: OIBP (PERSIAN GULF APT, IR) observed 1700 UTC 21 March 2019
Temperature: 23.0°C (73°F)
Dewpoint: 16.0°C (61°F) [RH = 65%]
Pressure (altimeter): 29.88 inches Hg (1012.0 mb)
Winds: from the NW (320 degrees) at 5 MPH (4 knots; 2.1 m/s)
Visibility: 6 or more miles (10+ km)
Ceiling: 9000 feet AGL
Clouds: scattered clouds at 4000 feet AGL
broken clouds at 9000 feet AGL
Weather: no significant weather observed at this time

METAR text: OIBP 211630Z 32004KT 9999 SCT040 BKN090 22/17 Q1012 A2989
Conditions at: OIBP (PERSIAN GULF APT, IR) observed 1630 UTC 21 March 2019
Temperature: 22.0°C (72°F)
Dewpoint: 17.0°C (63°F) [RH = 73%]
Pressure (altimeter): 29.88 inches Hg (1012.0 mb)
Winds: from the NW (320 degrees) at 5 MPH (4 knots; 2.1 m/s)
Visibility: 6 or more miles (10+ km)
Ceiling: 9000 feet AGL
Clouds: scattered clouds at 4000 feet AGL
broken clouds at 9000 feet AGL
Weather: no significant weather observed at this time

METAR text: OIBP 211600Z 34004KT 9999 SCT040 BKN100 23/16 Q1012 A2989
Conditions at: OIBP (PERSIAN GULF APT, IR) observed 1600 UTC 21 March 2019
Temperature: 23.0°C (73°F)
Dewpoint: 16.0°C (61°F) [RH = 65%]
Pressure (altimeter): 29.88 inches Hg (1012.0 mb)
Winds: from the NNW (340 degrees) at 5 MPH (4 knots; 2.1 m/s)
Visibility: 6 or more miles (10+ km)
Ceiling: 10000 feet AGL
Clouds: scattered clouds at 4000 feet AGL
broken clouds at 10000 feet AGL
Weather: no significant weather observed at this time

METAR text: OIBP 211530Z 34004KT 5000 HZ BKN035 OVC090 23/16 Q1011 A2987
Conditions at: OIBP (PERSIAN GULF APT, IR) observed 1530 UTC 21 March 2019
Temperature: 23.0°C (73°F)
Dewpoint: 16.0°C (61°F) [RH = 65%]
Pressure (altimeter): 29.85 inches Hg (1011.0 mb)
Winds: from the NNW (340 degrees) at 5 MPH (4 knots; 2.1 m/s)
Visibility: 3 miles ( 5 km)
Ceiling: 3500 feet AGL
Clouds: broken clouds at 3500 feet AGL
overcast cloud deck at 9000 feet AGL
Weather: HZ  (haze)

METAR text: OIBP 211500Z 08006KT 5000 HZ BKN035 OVC090 23/15 Q1011 A2987
Conditions at: OIBP (PERSIAN GULF APT, IR) observed 1500 UTC 21 March 2019
Temperature: 23.0°C (73°F)
Dewpoint: 15.0°C (59°F) [RH = 61%]
Pressure (altimeter): 29.85 inches Hg (1011.0 mb)
Winds: from the E (80 degrees) at 7 MPH (6 knots; 3.1 m/s)
Visibility: 3 miles ( 5 km)
Ceiling: 3500 feet AGL
Clouds: broken clouds at 3500 feet AGL
overcast cloud deck at 9000 feet AGL
Weather: HZ  (haze)

METAR text: OIBP 211430Z 17006KT 7000 FEW040 BKN100 25/16 Q1011 A2987
Conditions at: OIBP (PERSIAN GULF APT, IR) observed 1430 UTC 21 March 2019
Temperature: 25.0°C (77°F)
Dewpoint: 16.0°C (61°F) [RH = 57%]
Pressure (altimeter): 29.85 inches Hg (1011.0 mb)
Winds: from the S (170 degrees) at 7 MPH (6 knots; 3.1 m/s)
Visibility: 4 miles ( 7 km)
Ceiling: 10000 feet AGL
Clouds: few clouds at 4000 feet AGL
broken clouds at 10000 feet AGL
Weather: no significant weather observed at this time

METAR text: OIBP 211400Z 32006KT 8000 FEW040 BKN100 24/17 Q1011 A2987
Conditions at: OIBP (PERSIAN GULF APT, IR) observed 1400 UTC 21 March 2019
Temperature: 24.0°C (75°F)
Dewpoint: 17.0°C (63°F) [RH = 65%]
Pressure (altimeter): 29.85 inches Hg (1011.0 mb)
Winds: from the NW (320 degrees) at 7 MPH (6 knots; 3.1 m/s)
Visibility: 5 miles ( 8 km)
Ceiling: 10000 feet AGL
Clouds: few clouds at 4000 feet AGL
broken clouds at 10000 feet AGL
Weather: no significant weather observed at this time

METAR text: OIBP 211330Z 24008KT 8000 FEW040 BKN100 28/17 Q1010 A2985
Conditions at: OIBP (PERSIAN GULF APT, IR) observed 1330 UTC 21 March 2019
Temperature: 28.0°C (82°F)
Dewpoint: 17.0°C (63°F) [RH = 51%]
Pressure (altimeter): 29.82 inches Hg (1010.0 mb)
Winds: from the WSW (240 degrees) at 9 MPH (8 knots; 4.1 m/s)
Visibility: 5 miles ( 8 km)
Ceiling: 10000 feet AGL
Clouds: few clouds at 4000 feet AGL
broken clouds at 10000 feet AGL
Weather: no significant weather observed at this time

METAR text: OIBP 211300Z 24008KT 8000 FEW040 BKN100 28/17 Q1010 A2985
Conditions at: OIBP (PERSIAN GULF APT, IR) observed 1300 UTC 21 March 2019
Temperature: 28.0°C (82°F)
Dewpoint: 17.0°C (63°F) [RH = 51%]
Pressure (altimeter): 29.82 inches Hg (1010.0 mb)
Winds: from the WSW (240 degrees) at 9 MPH (8 knots; 4.1 m/s)
Visibility: 5 miles ( 8 km)
Ceiling: 10000 feet AGL
Clouds: few clouds at 4000 feet AGL
broken clouds at 10000 feet AGL
Weather: no significant weather observed at this time

METAR text: OIBP 211230Z 29006KT 8000 FEW040 BKN090 29/11 Q1010 A2985
Conditions at: OIBP (PERSIAN GULF APT, IR) observed 1230 UTC 21 March 2019
Temperature: 29.0°C (84°F)
Dewpoint: 11.0°C (52°F) [RH = 33%]
Pressure (altimeter): 29.82 inches Hg (1010.0 mb)
Winds: from the WNW (290 degrees) at 7 MPH (6 knots; 3.1 m/s)
Visibility: 5 miles ( 8 km)
Ceiling: 9000 feet AGL
Clouds: few clouds at 4000 feet AGL
broken clouds at 9000 feet AGL
Weather: no significant weather observed at this time

METAR text: OIBP 211200Z 07004KT 8000 FEW040 BKN090 28/13 Q1010 A2984
Conditions at: OIBP (PERSIAN GULF APT, IR) observed 1200 UTC 21 March 2019
Temperature: 28.0°C (82°F)
Dewpoint: 13.0°C (55°F) [RH = 40%]
Pressure (altimeter): 29.82 inches Hg (1010.0 mb)
Winds: from the ENE (70 degrees) at 5 MPH (4 knots; 2.1 m/s)
Visibility: 5 miles ( 8 km)
Ceiling: 9000 feet AGL
Clouds: few clouds at 4000 feet AGL
broken clouds at 9000 feet AGL
Weather: no significant weather observed at this time

METAR text: OIBP 211130Z 00000KT 7000 FEW040 BKN090 28/15 Q1012 A2989
Conditions at: OIBP (PERSIAN GULF APT, IR) observed 1130 UTC 21 March 2019
Temperature: 28.0°C (82°F)
Dewpoint: 15.0°C (59°F) [RH = 45%]
Pressure (altimeter): 29.88 inches Hg (1012.0 mb)
Winds: calm
Visibility: 4 miles ( 7 km)
Ceiling: 9000 feet AGL
Clouds: few clouds at 4000 feet AGL
broken clouds at 9000 feet AGL
Weather: no significant weather observed at this time

METAR text: OIBP 211100Z 32006KT 7000 FEW040 BKN090 26/14 Q1012 A2989
Conditions at: OIBP (PERSIAN GULF APT, IR) observed 1100 UTC 21 March 2019
Temperature: 26.0°C (79°F)
Dewpoint: 14.0°C (57°F) [RH = 48%]
Pressure (altimeter): 29.88 inches Hg (1012.0 mb)
Winds: from the NW (320 degrees) at 7 MPH (6 knots; 3.1 m/s)
Visibility: 4 miles ( 7 km)
Ceiling: 9000 feet AGL
Clouds: few clouds at 4000 feet AGL
broken clouds at 9000 feet AGL
Weather: no significant weather observed at this time

METAR text: OIBP 211000Z 28004KT 8000 FEW040 BKN090 27/17 Q1012 A2991
Conditions at: OIBP (PERSIAN GULF APT, IR) observed 1000 UTC 21 March 2019
Temperature: 27.0°C (81°F)
Dewpoint: 17.0°C (63°F) [RH = 54%]
Pressure (altimeter): 29.88 inches Hg (1012.0 mb)
Winds: from the W (280 degrees) at 5 MPH (4 knots; 2.1 m/s)
Visibility: 5 miles ( 8 km)
Ceiling: 9000 feet AGL
Clouds: few clouds at 4000 feet AGL
broken clouds at 9000 feet AGL
Weather: no significant weather observed at this time

METAR text: OIBP 210930Z 27004KT 8000 FEW040 BKN090 27/18 Q1013 A2991
Conditions at: OIBP (PERSIAN GULF APT, IR) observed 0930 UTC 21 March 2019
Temperature: 27.0°C (81°F)
Dewpoint: 18.0°C (64°F) [RH = 58%]
Pressure (altimeter): 29.91 inches Hg (1013.0 mb)
Winds: from the W (270 degrees) at 5 MPH (4 knots; 2.1 m/s)
Visibility: 5 miles ( 8 km)
Ceiling: 9000 feet AGL
Clouds: few clouds at 4000 feet AGL
broken clouds at 9000 feet AGL
Weather: no significant weather observed at this time

METAR text: OIBP 210900Z 23004KT 8000 SCT040 BKN090 26/19 Q1013 A2992
Conditions at: OIBP (PERSIAN GULF APT, IR) observed 0900 UTC 21 March 2019
Temperature: 26.0°C (79°F)
Dewpoint: 19.0°C (66°F) [RH = 65%]
Pressure (altimeter): 29.91 inches Hg (1013.0 mb)
Winds: from the SW (230 degrees) at 5 MPH (4 knots; 2.1 m/s)
Visibility: 5 miles ( 8 km)
Ceiling: 9000 feet AGL
Clouds: scattered clouds at 4000 feet AGL
broken clouds at 9000 feet AGL
Weather: no significant weather observed at this time

METAR text: OIBP 210830Z 00000KT 8000 SCT040 BKN090 29/14 Q1013 A2993
Conditions at: OIBP (PERSIAN GULF APT, IR) observed 0830 UTC 21 March 2019
Temperature: 29.0°C (84°F)
Dewpoint: 14.0°C (57°F) [RH = 40%]
Pressure (altimeter): 29.91 inches Hg (1013.0 mb)
Winds: calm
Visibility: 5 miles ( 8 km)
Ceiling: 9000 feet AGL
Clouds: scattered clouds at 4000 feet AGL
broken clouds at 9000 feet AGL
Weather: no significant weather observed at this time

METAR text: OIBP 210800Z 00000KT 8000 SCT040 BKN090 27/14 Q1013 A2993
Conditions at: OIBP (PERSIAN GULF APT, IR) observed 0800 UTC 21 March 2019
Temperature: 27.0°C (81°F)
Dewpoint: 14.0°C (57°F) [RH = 45%]
Pressure (altimeter): 29.91 inches Hg (1013.0 mb)
Winds: calm
Visibility: 5 miles ( 8 km)
Ceiling: 9000 feet AGL
Clouds: scattered clouds at 4000 feet AGL
broken clouds at 9000 feet AGL
Weather: no significant weather observed at this time

METAR text: OIBP 210730Z 00000KT 8000 NSC 28/13 Q1013 A2993
Conditions at: OIBP (PERSIAN GULF APT, IR) observed 0730 UTC 21 March 2019
Temperature: 28.0°C (82°F)
Dewpoint: 13.0°C (55°F) [RH = 40%]
Pressure (altimeter): 29.91 inches Hg (1013.0 mb)
Winds: calm
Visibility: 5 miles ( 8 km)
Ceiling: at least 12,000 feet AGL
Clouds: sky clear below 12,000 feet AGL
Weather: no significant weather observed at this time

METAR text: OIBP 210700Z 00000KT 7000 NSC 26/15 Q1013 A2992
Conditions at: OIBP (PERSIAN GULF APT, IR) observed 0700 UTC 21 March 2019
Temperature: 26.0°C (79°F)
Dewpoint: 15.0°C (59°F) [RH = 51%]
Pressure (altimeter): 29.91 inches Hg (1013.0 mb)
Winds: calm
Visibility: 4 miles ( 7 km)
Ceiling: at least 12,000 feet AGL
Clouds: sky clear below 12,000 feet AGL
Weather: no significant weather observed at this time

METAR text: OIBP 210630Z 11004KT 7000 NSC 25/15 Q1013 A2992
Conditions at: OIBP (PERSIAN GULF APT, IR) observed 0630 UTC 21 March 2019
Temperature: 25.0°C (77°F)
Dewpoint: 15.0°C (59°F) [RH = 54%]
Pressure (altimeter): 29.91 inches Hg (1013.0 mb)
Winds: from the ESE (110 degrees) at 5 MPH (4 knots; 2.1 m/s)
Visibility: 4 miles ( 7 km)
Ceiling: at least 12,000 feet AGL
Clouds: sky clear below 12,000 feet AGL
Weather: no significant weather observed at this time

METAR text: OIBP 210600Z 15006KT 6000 NSC 22/16 Q1013 A2992
Conditions at: OIBP (PERSIAN GULF APT, IR) observed 0600 UTC 21 March 2019
Temperature: 22.0°C (72°F)
Dewpoint: 16.0°C (61°F) [RH = 69%]
Pressure (altimeter): 29.91 inches Hg (1013.0 mb)
Winds: from the SSE (150 degrees) at 7 MPH (6 knots; 3.1 m/s)
Visibility: 4 miles ( 6 km)
Ceiling: at least 12,000 feet AGL
Clouds: sky clear below 12,000 feet AGL
Weather: no significant weather observed at this time

METAR text: OIBP 210530Z 14004KT 6000 NSC 21/16 Q1013 A2991
Conditions at: OIBP (PERSIAN GULF APT, IR) observed 0530 UTC 21 March 2019
Temperature: 21.0°C (70°F)
Dewpoint: 16.0°C (61°F) [RH = 73%]
Pressure (altimeter): 29.91 inches Hg (1013.0 mb)
Winds: from the SE (140 degrees) at 5 MPH (4 knots; 2.1 m/s)
Visibility: 4 miles ( 6 km)
Ceiling: at least 12,000 feet AGL
Clouds: sky clear below 12,000 feet AGL
Weather: no significant weather observed at this time

METAR text: OIBP 210500Z 12004KT 6000 NSC 19/16 Q1012 A2991
Conditions at: OIBP (PERSIAN GULF APT, IR) observed 0500 UTC 21 March 2019
Temperature: 19.0°C (66°F)
Dewpoint: 16.0°C (61°F) [RH = 83%]
Pressure (altimeter): 29.88 inches Hg (1012.0 mb)
Winds: from the ESE (120 degrees) at 5 MPH (4 knots; 2.1 m/s)
Visibility: 4 miles ( 6 km)
Ceiling: at least 12,000 feet AGL
Clouds: sky clear below 12,000 feet AGL
Weather: no significant weather observed at this time

METAR text: OIBP 210430Z 00000KT 6000 NSC 19/16 Q1012 A2990
Conditions at: OIBP (PERSIAN GULF APT, IR) observed 0430 UTC 21 March 2019
Temperature: 19.0°C (66°F)
Dewpoint: 16.0°C (61°F) [RH = 83%]
Pressure (altimeter): 29.88 inches Hg (1012.0 mb)
Winds: calm
Visibility: 4 miles ( 6 km)
Ceiling: at least 12,000 feet AGL
Clouds: sky clear below 12,000 feet AGL
Weather: no significant weather observed at this time

METAR text: OIBP 210400Z 00000KT 4000 BR NSC 17/16 Q1012 A2989
Conditions at: OIBP (PERSIAN GULF APT, IR) observed 0400 UTC 21 March 2019
Temperature: 17.0°C (63°F)
Dewpoint: 16.0°C (61°F) [RH = 94%]
Pressure (altimeter): 29.88 inches Hg (1012.0 mb)
Winds: calm
Visibility: 2.49 miles (4.01 km)
Ceiling: at least 12,000 feet AGL
Clouds: sky clear below 12,000 feet AGL
Weather: BR  (mist)

METAR text: OIBP 210330Z 00000KT 4000 BR NSC 16/15 Q1012 A2989
Conditions at: OIBP (PERSIAN GULF APT, IR) observed 0330 UTC 21 March 2019
Temperature: 16.0°C (61°F)
Dewpoint: 15.0°C (59°F) [RH = 94%]
Pressure (altimeter): 29.88 inches Hg (1012.0 mb)
Winds: calm
Visibility: 2.49 miles (4.01 km)
Ceiling: at least 12,000 feet AGL
Clouds: sky clear below 12,000 feet AGL
Weather: BR  (mist)

METAR text: OIBP 210300Z 09004KT 5000 BR NSC 14/13 Q1011 A2987
Conditions at: OIBP (PERSIAN GULF APT, IR) observed 0300 UTC 21 March 2019
Temperature: 14.0°C (57°F)
Dewpoint: 13.0°C (55°F) [RH = 94%]
Pressure (altimeter): 29.85 inches Hg (1011.0 mb)
Winds: from the E (90 degrees) at 5 MPH (4 knots; 2.1 m/s)
Visibility: 3 miles ( 5 km)
Ceiling: at least 12,000 feet AGL
Clouds: sky clear below 12,000 feet AGL
Weather: BR  (mist)

METAR text: OIBP 210200Z 14006KT CAVOK 15/14 Q1010 A2985
Conditions at: OIBP (PERSIAN GULF APT, IR) observed 0200 UTC 21 March 2019
Temperature: 15.0°C (59°F)
Dewpoint: 14.0°C (57°F) [RH = 94%]
Pressure (altimeter): 29.82 inches Hg (1010.0 mb)
Winds: from the SE (140 degrees) at 7 MPH (6 knots; 3.1 m/s)
Visibility: 6 or more miles (10+ km)
Ceiling: ceiling and visibility are OK
Clouds: unknown
Weather: no significant weather observed at this time